Time;durP1;ratioP1;P1;durP2;ratioP2;P2;SDS_P1;SDS_P2;PMS_P1;PMS_P2;Temp;Humidity;BMP_temperature;BMP_pressure;BME280_temperature;BME280_humidity;BME280_pressure;Samples;Min_cycle;Max_cycle;Signal;HPM_P1;HPM_P2
2021/07/09 00:01:18;;;;;;;;;;;25.90;55.00;;;;;;5081014;28;19927;-54
2021/07/09 00:03:44;;;;;;;;;;;25.80;54.90;;;;;;5079360;28;20010;-59
2021/07/09 00:06:10;;;;;;;;;;;25.80;54.90;;;;;;5080554;28;20003;-59
2021/07/09 00:08:35;;;;;;;;;;;25.90;55.00;;;;;;5084999;28;19919;-58
2021/07/09 00:11:01;;;;;;;;;;;25.90;55.00;;;;;;5086112;28;20007;-57
2021/07/09 00:13:26;;;;;;;;;;;25.80;54.90;;;;;;5083928;28;20014;-58
2021/07/09 00:15:52;;;;;;;;;;;25.80;54.90;;;;;;5083018;28;19920;-58
2021/07/09 00:18:18;;;;;;;;;;;25.80;54.90;;;;;;5083756;28;19943;-58
2021/07/09 00:20:43;;;;;;;;;;;25.80;54.90;;;;;;5084632;28;20327;-59
2021/07/09 00:23:09;;;;;;;;;;;25.80;54.90;;;;;;5084303;28;20317;-56
2021/07/09 00:25:36;;;;;;;;;;;25.80;54.90;;;;;;5077005;28;20343;-59
2021/07/09 00:28:02;;;;;;;;;;;25.80;54.90;;;;;;5084375;28;20338;-59
2021/07/09 00:30:28;;;;;;;;;;;25.80;54.90;;;;;;5079781;28;19923;-57
2021/07/09 00:32:53;;;;;;;;;;;25.80;54.90;;;;;;5089169;28;19919;-58
2021/07/09 00:35:19;;;;;;;;;;;25.80;54.90;;;;;;5089540;28;19915;-58
2021/07/09 00:37:44;;;;;;;;;;;25.70;54.80;;;;;;5085915;28;19908;-55
2021/07/09 00:40:10;;;;;;;;;;;25.80;54.80;;;;;;5090871;28;19918;-56
2021/07/09 00:42:36;;;;;;;;;;;25.80;54.90;;;;;;5089024;28;19908;-58
2021/07/09 00:45:03;;;;;;;;;;;25.70;54.80;;;;;;5088839;28;20228;-59
2021/07/09 00:47:29;;;;;;;;;;;25.70;54.80;;;;;;5088369;28;19912;-57
2021/07/09 00:49:54;;;;;;;;;;;25.70;54.80;;;;;;5088564;28;19908;-55
2021/07/09 00:52:20;;;;;;;;;;;25.70;54.80;;;;;;5090037;28;19916;-55
2021/07/09 00:54:45;;;;;;;;;;;25.70;54.80;;;;;;5090673;28;19962;-56
2021/07/09 00:57:11;;;;;;;;;;;25.70;54.80;;;;;;5088670;28;19916;-58
2021/07/09 00:59:36;;;;;;;;;;;25.70;54.80;;;;;;5089061;28;20255;-53
2021/07/09 01:02:02;;;;;;;;;;;25.70;54.80;;;;;;5088557;28;19912;-57
2021/07/09 01:04:28;;;;;;;;;;;25.70;54.80;;;;;;5075026;28;20179;-60
2021/07/09 01:06:54;;;;;;;;;;;25.70;54.80;;;;;;5064413;28;19927;-60
2021/07/09 01:09:19;;;;;;;;;;;25.70;54.80;;;;;;5083706;28;19919;-58
2021/07/09 01:11:48;;;;;;;;;;;25.70;54.80;;;;;;5089730;28;19908;-59
2021/07/09 01:14:14;;;;;;;;;;;25.70;54.80;;;;;;5088294;28;20513;-59
2021/07/09 01:16:39;;;;;;;;;;;25.70;54.80;;;;;;5079056;28;20234;-60
2021/07/09 01:19:07;;;;;;;;;;;25.70;54.80;;;;;;5087131;28;20006;-56
2021/07/09 01:21:32;;;;;;;;;;;25.70;54.80;;;;;;5084879;28;19918;-58
2021/07/09 01:24:03;;;;;;;;;;;25.70;54.80;;;;;;5087470;28;20346;-58
2021/07/09 01:26:28;;;;;;;;;;;25.70;54.80;;;;;;5077685;28;19951;-56
2021/07/09 01:28:54;;;;;;;;;;;25.70;54.80;;;;;;5089134;28;19955;-58
2021/07/09 01:31:20;;;;;;;;;;;25.70;54.80;;;;;;5086986;28;19965;-61
2021/07/09 01:33:45;;;;;;;;;;;25.60;54.70;;;;;;5090954;28;19916;-57
2021/07/09 01:36:11;;;;;;;;;;;25.60;54.70;;;;;;5084290;28;19920;-57
2021/07/09 01:38:36;;;;;;;;;;;25.60;54.80;;;;;;5087613;28;20378;-55
2021/07/09 01:41:02;;;;;;;;;;;25.60;54.80;;;;;;5085453;28;19927;-57
2021/07/09 01:43:27;;;;;;;;;;;25.60;54.70;;;;;;5088872;28;20241;-58
2021/07/09 01:45:54;;;;;;;;;;;25.60;54.70;;;;;;5087070;28;19969;-55
2021/07/09 01:48:20;;;;;;;;;;;25.60;54.70;;;;;;5088959;28;19912;-56
2021/07/09 01:50:46;;;;;;;;;;;25.60;54.70;;;;;;5084617;28;20791;-59
2021/07/09 01:53:11;;;;;;;;;;;25.60;54.70;;;;;;5086834;28;19916;-58
2021/07/09 01:55:36;;;;;;;;;;;25.60;54.70;;;;;;5086767;28;19999;-58
2021/07/09 01:58:02;;;;;;;;;;;25.60;54.70;;;;;;5087026;28;20043;-57
2021/07/09 02:00:28;;;;;;;;;;;25.60;54.80;;;;;;5084184;28;19939;-59
2021/07/09 02:02:53;;;;;;;;;;;25.60;54.80;;;;;;5085786;28;19969;-55
2021/07/09 02:05:20;;;;;;;;;;;25.60;54.80;;;;;;5083766;28;19970;-60
2021/07/09 02:07:46;;;;;;;;;;;25.60;54.80;;;;;;5083345;28;19960;-57
2021/07/09 02:10:13;;;;;;;;;;;25.50;54.70;;;;;;5068693;28;19919;-58
2021/07/09 02:12:39;;;;;;;;;;;25.60;54.70;;;;;;5088452;28;20338;-59
2021/07/09 02:15:06;;;;;;;;;;;25.50;54.70;;;;;;5086818;28;20456;-59
2021/07/09 02:17:32;;;;;;;;;;;25.50;54.70;;;;;;5087387;28;19912;-55
2021/07/09 02:19:57;;;;;;;;;;;25.50;54.70;;;;;;5085399;28;19972;-58
2021/07/09 02:22:22;;;;;;;;;;;25.50;54.70;;;;;;5086487;28;19968;-54
2021/07/09 02:24:49;;;;;;;;;;;25.50;54.70;;;;;;5086497;28;20271;-58
2021/07/09 02:27:15;;;;;;;;;;;25.50;54.70;;;;;;5083571;28;20069;-59
2021/07/09 02:29:41;;;;;;;;;;;25.50;54.70;;;;;;5087803;28;19999;-58
2021/07/09 02:32:08;;;;;;;;;;;25.50;54.70;;;;;;5085092;28;19916;-57
2021/07/09 02:34:34;;;;;;;;;;;25.50;54.70;;;;;;5085939;28;20139;-59
2021/07/09 02:36:59;;;;;;;;;;;25.50;54.70;;;;;;5082969;28;20281;-59
2021/07/09 02:39:28;;;;;;;;;;;25.50;54.70;;;;;;5088269;28;19912;-56
2021/07/09 02:41:54;;;;;;;;;;;25.50;54.70;;;;;;5086529;28;19908;-60
2021/07/09 02:44:20;;;;;;;;;;;25.50;54.70;;;;;;5088113;28;20003;-57
2021/07/09 02:46:46;;;;;;;;;;;25.50;54.70;;;;;;5084606;28;20356;-59
2021/07/09 02:49:11;;;;;;;;;;;25.50;54.70;;;;;;5087545;28;19972;-59
2021/07/09 02:51:37;;;;;;;;;;;25.50;54.70;;;;;;5084062;28;19916;-56
2021/07/09 02:54:03;;;;;;;;;;;25.50;54.70;;;;;;5085757;28;19930;-57
2021/07/09 02:56:28;;;;;;;;;;;25.50;54.70;;;;;;5085687;28;19985;-58
2021/07/09 02:58:54;;;;;;;;;;;25.40;54.70;;;;;;5086664;28;20532;-59
2021/07/09 03:01:19;;;;;;;;;;;25.50;54.80;;;;;;5085054;28;19912;-56
2021/07/09 03:03:45;;;;;;;;;;;25.40;54.60;;;;;;5088672;28;20018;-57
2021/07/09 03:06:10;;;;;;;;;;;25.40;54.60;;;;;;5080226;28;19911;-60
2021/07/09 03:08:36;;;;;;;;;;;25.40;54.60;;;;;;5083951;28;20010;-60
2021/07/09 03:11:02;;;;;;;;;;;25.40;54.60;;;;;;5082365;28;19955;-57
2021/07/09 03:13:27;;;;;;;;;;;25.40;54.70;;;;;;5086542;28;19955;-52
2021/07/09 03:15:53;;;;;;;;;;;25.40;54.60;;;;;;5082184;28;19973;-58
2021/07/09 03:18:18;;;;;;;;;;;25.40;54.70;;;;;;5086411;28;20348;-56
2021/07/09 03:20:43;;;;;;;;;;;25.40;55.20;;;;;;5082824;28;19915;-60
2021/07/09 03:23:09;;;;;;;;;;;25.40;54.70;;;;;;5085002;28;19911;-60
2021/07/09 03:25:35;;;;;;;;;;;25.40;54.70;;;;;;5084180;28;19908;-56
2021/07/09 03:28:00;;;;;;;;;;;25.40;54.70;;;;;;5086762;28;20018;-58
2021/07/09 03:30:26;;;;;;;;;;;25.40;54.70;;;;;;5084819;28;19926;-58
2021/07/09 03:32:51;;;;;;;;;;;25.40;54.70;;;;;;5086440;28;19912;-54
2021/07/09 03:35:17;;;;;;;;;;;25.40;54.70;;;;;;5090934;28;19918;-56
2021/07/09 03:37:42;;;;;;;;;;;25.40;54.70;;;;;;5096212;28;19999;-60
2021/07/09 03:40:08;;;;;;;;;;;25.40;54.70;;;;;;5069954;28;19954;-56
2021/07/09 03:42:34;;;;;;;;;;;25.40;54.70;;;;;;5094925;28;20340;-57
2021/07/09 03:44:59;;;;;;;;;;;25.40;54.70;;;;;;5087578;28;20011;-60
2021/07/09 03:47:25;;;;;;;;;;;25.40;54.70;;;;;;5083420;28;19937;-58
2021/07/09 03:49:50;;;;;;;;;;;25.40;54.70;;;;;;5086609;28;19912;-59
2021/07/09 03:52:16;;;;;;;;;;;25.40;54.70;;;;;;5086224;28;20436;-55
2021/07/09 03:54:41;;;;;;;;;;;25.40;54.70;;;;;;5083176;28;19912;-59
2021/07/09 03:57:07;;;;;;;;;;;25.30;54.60;;;;;;5085324;28;19912;-55
2021/07/09 03:59:33;;;;;;;;;;;25.30;54.60;;;;;;5086579;28;19916;-58
2021/07/09 04:01:58;;;;;;;;;;;25.40;54.70;;;;;;5078364;28;19916;-58
2021/07/09 04:04:24;;;;;;;;;;;25.30;54.60;;;;;;5088030;28;19941;-57
2021/07/09 04:06:49;;;;;;;;;;;25.30;54.60;;;;;;5084164;28;19936;-60
2021/07/09 04:09:15;;;;;;;;;;;25.30;54.60;;;;;;5085565;28;19915;-57
2021/07/09 04:11:40;;;;;;;;;;;25.30;54.70;;;;;;5089669;28;19923;-57
2021/07/09 04:14:06;;;;;;;;;;;25.30;54.60;;;;;;5086535;28;19908;-58
2021/07/09 04:16:31;;;;;;;;;;;25.30;54.60;;;;;;5085426;28;20306;-57
2021/07/09 04:18:57;;;;;;;;;;;25.30;54.60;;;;;;5075160;28;20111;-57
2021/07/09 04:21:22;;;;;;;;;;;25.30;54.60;;;;;;5081670;28;19931;-55
2021/07/09 04:23:48;;;;;;;;;;;25.30;54.60;;;;;;5083856;28;19957;-55
2021/07/09 04:26:14;;;;;;;;;;;25.30;54.60;;;;;;5082683;28;20032;-59
2021/07/09 04:28:39;;;;;;;;;;;25.30;55.20;;;;;;5084591;28;19991;-55
2021/07/09 04:31:04;;;;;;;;;;;25.30;54.60;;;;;;5085382;28;19916;-57
2021/07/09 04:33:30;;;;;;;;;;;25.30;54.60;;;;;;5087090;28;19961;-57
2021/07/09 04:35:56;;;;;;;;;;;25.30;54.60;;;;;;5081481;28;20274;-57
2021/07/09 04:38:22;;;;;;;;;;;25.30;54.70;;;;;;5087522;28;19916;-59
2021/07/09 04:40:48;;;;;;;;;;;25.30;54.60;;;;;;5086759;28;19927;-59
2021/07/09 04:43:13;;;;;;;;;;;25.30;54.60;;;;;;5086393;28;20003;-60
2021/07/09 04:45:39;;;;;;;;;;;25.30;54.60;;;;;;5083663;28;19908;-58
2021/07/09 04:48:05;;;;;;;;;;;25.20;54.50;;;;;;5087963;28;19962;-60
2021/07/09 04:50:31;;;;;;;;;;;25.20;54.50;;;;;;5083257;28;19999;-60
2021/07/09 04:52:57;;;;;;;;;;;25.30;54.60;;;;;;5082469;28;20395;-61
2021/07/09 04:55:22;;;;;;;;;;;25.30;54.60;;;;;;5081290;28;19947;-61
2021/07/09 04:57:48;;;;;;;;;;;25.30;54.60;;;;;;5081736;28;19991;-59
2021/07/09 05:00:14;;;;;;;;;;;25.30;54.60;;;;;;5087034;28;20312;-61
2021/07/09 05:02:39;;;;;;;;;;;25.20;54.50;;;;;;5085100;28;20261;-60
2021/07/09 05:05:10;;;;;;;;;;;25.20;54.50;;;;;;5077729;28;19919;-60
2021/07/09 05:07:37;;;;;;;;;;;25.20;54.50;;;;;;5078876;28;19959;-59
2021/07/09 05:10:03;;;;;;;;;;;25.20;54.50;;;;;;5078639;28;20252;-60
2021/07/09 05:12:28;;;;;;;;;;;25.20;54.50;;;;;;5087461;28;19960;-60
2021/07/09 05:14:54;;;;;;;;;;;25.20;54.50;;;;;;5087622;28;19911;-59
2021/07/09 05:17:19;;;;;;;;;;;25.20;54.50;;;;;;5087681;28;19951;-60
2021/07/09 05:19:45;;;;;;;;;;;25.20;54.50;;;;;;5089606;28;19924;-60
2021/07/09 05:22:11;;;;;;;;;;;25.20;54.50;;;;;;5078661;28;19912;-61
2021/07/09 05:24:39;;;;;;;;;;;25.20;54.40;;;;;;5086209;28;20746;-60
2021/07/09 05:27:05;;;;;;;;;;;25.20;54.50;;;;;;5087755;28;19923;-60
2021/07/09 05:29:31;;;;;;;;;;;25.20;54.50;;;;;;5090095;28;19930;-59
2021/07/09 05:31:56;;;;;;;;;;;25.30;54.40;;;;;;5091035;28;19919;-58
2021/07/09 05:34:22;;;;;;;;;;;25.30;54.30;;;;;;5095810;28;20301;-60
2021/07/09 05:36:47;;;;;;;;;;;25.30;54.30;;;;;;5089716;28;19916;-60
2021/07/09 05:39:15;;;;;;;;;;;25.30;54.20;;;;;;5088818;28;19938;-60
2021/07/09 05:41:44;;;;;;;;;;;25.30;54.20;;;;;;5091426;28;19919;-59
2021/07/09 05:44:10;;;;;;;;;;;25.40;54.10;;;;;;5094678;28;20255;-61
2021/07/09 05:46:35;;;;;;;;;;;25.40;54.10;;;;;;5090271;28;19912;-61
2021/07/09 05:49:01;;;;;;;;;;;25.40;53.90;;;;;;5091372;28;19912;-60
2021/07/09 05:51:26;;;;;;;;;;;25.40;53.80;;;;;;5089036;28;19912;-59
2021/07/09 05:53:52;;;;;;;;;;;25.40;53.80;;;;;;5088346;28;19918;-60
2021/07/09 05:56:22;;;;;;;;;;;25.40;53.90;;;;;;5088243;28;19923;-59
2021/07/09 05:58:48;;;;;;;;;;;25.50;53.90;;;;;;5086989;28;19916;-60
2021/07/09 06:01:13;;;;;;;;;;;25.50;53.70;;;;;;5082061;28;19916;-60
2021/07/09 06:03:39;;;;;;;;;;;25.50;53.70;;;;;;5087991;28;19931;-59
2021/07/09 06:06:04;;;;;;;;;;;25.50;53.70;;;;;;5084196;28;19916;-59
2021/07/09 06:08:30;;;;;;;;;;;25.60;53.70;;;;;;5084827;28;20266;-61
2021/07/09 06:10:58;;;;;;;;;;;25.60;53.60;;;;;;5087280;28;19919;-61
2021/07/09 06:13:24;;;;;;;;;;;25.60;53.60;;;;;;5088583;28;19922;-60
2021/07/09 06:15:50;;;;;;;;;;;25.60;53.60;;;;;;5084751;28;19931;-60
2021/07/09 06:18:15;;;;;;;;;;;25.60;53.60;;;;;;5083940;28;19916;-60
2021/07/09 06:20:41;;;;;;;;;;;25.60;54.00;;;;;;5086662;28;19970;-60
2021/07/09 06:23:06;;;;;;;;;;;25.60;53.50;;;;;;5086596;28;19961;-59
2021/07/09 06:25:32;;;;;;;;;;;25.70;53.40;;;;;;5084966;28;19918;-61
2021/07/09 06:27:57;;;;;;;;;;;25.70;53.40;;;;;;5087181;28;19916;-60
2021/07/09 06:30:23;;;;;;;;;;;25.70;53.40;;;;;;5084955;28;19920;-56
2021/07/09 06:32:49;;;;;;;;;;;25.70;53.40;;;;;;5083961;28;19996;-60
2021/07/09 06:35:14;;;;;;;;;;;25.70;53.30;;;;;;5071923;28;19912;-59
2021/07/09 06:37:40;;;;;;;;;;;25.70;53.30;;;;;;5082858;28;20377;-60
2021/07/09 06:40:07;;;;;;;;;;;25.70;53.30;;;;;;5086060;28;19916;-60
2021/07/09 06:42:32;;;;;;;;;;;25.80;53.30;;;;;;5086583;28;20346;-58
2021/07/09 06:44:58;;;;;;;;;;;25.80;53.20;;;;;;5084009;28;19927;-60
2021/07/09 06:47:23;;;;;;;;;;;25.80;53.20;;;;;;5066050;28;19912;-60
2021/07/09 06:49:49;;;;;;;;;;;25.80;53.20;;;;;;5078941;28;19962;-60
2021/07/09 06:52:14;;;;;;;;;;;25.80;53.20;;;;;;5085677;28;19915;-60
2021/07/09 06:54:40;;;;;;;;;;;25.90;53.20;;;;;;5089398;28;19934;-60
2021/07/09 06:57:06;;;;;;;;;;;25.90;53.20;;;;;;5087360;28;19912;-61
2021/07/09 06:59:31;;;;;;;;;;;25.90;53.10;;;;;;5091269;28;19915;-59
2021/07/09 07:01:56;;;;;;;;;;;25.90;53.10;;;;;;5086069;28;19924;-60
2021/07/09 07:04:22;;;;;;;;;;;25.90;53.00;;;;;;5090183;28;19915;-61
2021/07/09 07:06:49;;;;;;;;;;;25.90;53.10;;;;;;5084190;28;20010;-60
2021/07/09 07:09:15;;;;;;;;;;;25.90;53.10;;;;;;5084989;28;20254;-60
2021/07/09 07:11:40;;;;;;;;;;;26.00;53.10;;;;;;5085230;28;20337;-61
2021/07/09 07:14:06;;;;;;;;;;;26.00;53.10;;;;;;5087608;28;19912;-59
2021/07/09 07:16:31;;;;;;;;;;;26.00;52.90;;;;;;5082084;28;19908;-59
2021/07/09 07:18:57;;;;;;;;;;;26.00;52.90;;;;;;5085286;28;20274;-59
2021/07/09 07:21:22;;;;;;;;;;;26.00;52.80;;;;;;5094419;28;20045;-60
2021/07/09 07:23:47;;;;;;;;;;;26.00;51.90;;;;;;5084201;28;19916;-61
2021/07/09 07:26:14;;;;;;;;;;;25.90;51.80;;;;;;5090879;28;20669;-59
2021/07/09 07:28:40;;;;;;;;;;;25.80;51.70;;;;;;5085165;28;19908;-60
2021/07/09 07:31:05;;;;;;;;;;;25.80;52.10;;;;;;5083856;28;20685;-61
2021/07/09 07:33:31;;;;;;;;;;;25.70;52.80;;;;;;5086019;28;19923;-60
2021/07/09 07:35:56;;;;;;;;;;;25.80;53.00;;;;;;5096143;28;19912;-58
2021/07/09 07:38:22;;;;;;;;;;;25.80;53.20;;;;;;5085594;28;19999;-59
2021/07/09 07:40:47;;;;;;;;;;;25.90;53.10;;;;;;5088857;28;19916;-58
2021/07/09 07:43:13;;;;;;;;;;;25.90;53.20;;;;;;5090550;28;19908;-57
2021/07/09 07:45:38;;;;;;;;;;;26.00;53.10;;;;;;5099938;28;20331;-59
2021/07/09 07:48:04;;;;;;;;;;;26.00;53.10;;;;;;5088550;28;19912;-59
2021/07/09 07:50:29;;;;;;;;;;;26.00;53.00;;;;;;5091580;28;19908;-59
2021/07/09 07:52:55;;;;;;;;;;;26.00;52.90;;;;;;5086271;28;20329;-59
2021/07/09 07:55:21;;;;;;;;;;;26.00;52.70;;;;;;5086441;28;19922;-60
2021/07/09 07:57:46;;;;;;;;;;;26.10;52.70;;;;;;5085877;28;19919;-62
2021/07/09 08:00:12;;;;;;;;;;;26.10;52.80;;;;;;5085231;28;19915;-59
2021/07/09 08:02:38;;;;;;;;;;;26.10;52.70;;;;;;5083086;28;19912;-60
2021/07/09 08:05:04;;;;;;;;;;;26.10;52.80;;;;;;5082726;28;19912;-59
2021/07/09 08:07:30;;;;;;;;;;;26.10;53.40;;;;;;5086679;28;19919;-59
2021/07/09 08:09:55;;;;;;;;;;;26.10;52.70;;;;;;5090504;28;20125;-60
2021/07/09 08:12:21;;;;;;;;;;;26.10;52.70;;;;;;5091679;28;20046;-57
2021/07/09 08:14:46;;;;;;;;;;;26.10;52.70;;;;;;5088683;28;19992;-59
2021/07/09 08:17:12;;;;;;;;;;;26.10;52.70;;;;;;5087188;28;19912;-59
2021/07/09 08:19:37;;;;;;;;;;;26.10;52.60;;;;;;5100398;28;20372;-59
2021/07/09 08:22:03;;;;;;;;;;;26.20;52.70;;;;;;5085250;28;19911;-60
2021/07/09 08:24:28;;;;;;;;;;;26.20;52.70;;;;;;5086206;28;19952;-60
2021/07/09 08:26:54;;;;;;;;;;;26.20;52.70;;;;;;5086311;28;19919;-60
2021/07/09 08:29:20;;;;;;;;;;;26.20;52.70;;;;;;5087275;28;20316;-57
2021/07/09 08:31:45;;;;;;;;;;;26.20;52.70;;;;;;5088704;28;20027;-60
2021/07/09 08:34:11;;;;;;;;;;;26.20;52.70;;;;;;5085969;28;20386;-60
2021/07/09 08:36:36;;;;;;;;;;;26.20;52.60;;;;;;5083445;28;19915;-59
2021/07/09 08:39:03;;;;;;;;;;;26.20;52.60;;;;;;5085964;28;20566;-60
2021/07/09 08:41:28;;;;;;;;;;;26.30;52.70;;;;;;5086188;28;19919;-59
2021/07/09 08:43:54;;;;;;;;;;;26.30;52.60;;;;;;5089742;28;19908;-58
2021/07/09 08:46:21;;;;;;;;;;;26.30;52.80;;;;;;5091497;28;20069;-59
2021/07/09 08:48:46;;;;;;;;;;;26.30;52.50;;;;;;5084460;28;20049;-59
2021/07/09 08:51:12;;;;;;;;;;;26.30;52.60;;;;;;5089054;28;20418;-58
2021/07/09 08:53:38;;;;;;;;;;;26.30;52.60;;;;;;5089050;28;20054;-59
2021/07/09 08:56:05;;;;;;;;;;;26.30;52.50;;;;;;5091288;28;19912;-60
2021/07/09 08:58:30;;;;;;;;;;;26.30;52.50;;;;;;5089914;28;19923;-59
2021/07/09 09:00:56;;;;;;;;;;;26.40;52.60;;;;;;5098682;28;19920;-60
2021/07/09 09:03:24;;;;;;;;;;;26.40;52.50;;;;;;5091219;28;19911;-59
2021/07/09 09:05:50;;;;;;;;;;;26.40;52.50;;;;;;5089982;28;20310;-59
2021/07/09 09:08:17;;;;;;;;;;;26.40;52.50;;;;;;5089428;28;19908;-59
2021/07/09 09:10:42;;;;;;;;;;;26.40;52.50;;;;;;5084953;28;19915;-59
2021/07/09 09:13:08;;;;;;;;;;;26.40;52.50;;;;;;5104718;28;19919;-60
2021/07/09 09:15:35;;;;;;;;;;;26.40;52.40;;;;;;5091286;28;19942;-58
2021/07/09 09:18:01;;;;;;;;;;;26.40;52.40;;;;;;5089240;28;20738;-56
2021/07/09 09:20:29;;;;;;;;;;;26.40;52.40;;;;;;5089555;28;19919;-61
2021/07/09 09:22:56;;;;;;;;;;;26.40;52.30;;;;;;5089642;28;20391;-60
2021/07/09 09:25:26;;;;;;;;;;;26.40;52.30;;;;;;5089524;28;19951;-59
2021/07/09 09:28:03;;;;;;;;;;;26.50;52.30;;;;;;5089178;28;19914;-59
2021/07/09 09:30:29;;;;;;;;;;;26.40;52.30;;;;;;5085070;28;19973;-59
2021/07/09 09:32:54;;;;;;;;;;;26.50;52.30;;;;;;5086909;28;19908;-59
2021/07/09 09:35:24;;;;;;;;;;;26.50;52.20;;;;;;5081452;28;20198;-60
2021/07/09 09:37:51;;;;;;;;;;;26.50;52.20;;;;;;5084470;28;19909;-58
2021/07/09 09:40:16;;;;;;;;;;;26.50;52.20;;;;;;5081792;28;20277;-59
2021/07/09 09:42:43;;;;;;;;;;;26.50;52.20;;;;;;5090697;28;19908;-57
2021/07/09 09:45:08;;;;;;;;;;;26.50;52.10;;;;;;5089125;28;20353;-59
2021/07/09 09:47:35;;;;;;;;;;;26.50;52.20;;;;;;5086004;28;19995;-59
2021/07/09 09:50:03;;;;;;;;;;;26.50;52.20;;;;;;5078826;28;19912;-60
2021/07/09 09:52:33;;;;;;;;;;;26.60;52.20;;;;;;5084032;28;19920;-58
2021/07/09 09:54:58;;;;;;;;;;;26.60;52.40;;;;;;5087157;28;19912;-58
2021/07/09 09:57:24;;;;;;;;;;;26.60;52.40;;;;;;5088330;28;19908;-58
2021/07/09 09:59:51;;;;;;;;;;;26.60;52.30;;;;;;5086551;28;19923;-55
2021/07/09 10:02:16;;;;;;;;;;;26.60;52.50;;;;;;5087825;28;19916;-58
2021/07/09 10:04:42;;;;;;;;;;;26.60;51.60;;;;;;5090243;28;19919;-59
2021/07/09 10:07:08;;;;;;;;;;;26.50;51.50;;;;;;5089003;28;20315;-59
2021/07/09 10:09:33;;;;;;;;;;;26.50;52.20;;;;;;5087427;28;20305;-60
2021/07/09 10:12:03;;;;;;;;;;;26.50;52.40;;;;;;5086880;28;19911;-59
2021/07/09 10:14:30;;;;;;;;;;;26.50;52.40;;;;;;5088901;28;19911;-59
2021/07/09 10:17:00;;;;;;;;;;;26.50;52.30;;;;;;5084646;28;19923;-59
2021/07/09 10:19:34;;;;;;;;;;;26.60;52.40;;;;;;5089656;28;20370;-58
2021/07/09 10:22:00;;;;;;;;;;;26.60;52.30;;;;;;5082917;28;19908;-58
2021/07/09 10:24:25;;;;;;;;;;;26.60;52.30;;;;;;5086902;28;20010;-59
2021/07/09 10:26:53;;;;;;;;;;;26.60;52.30;;;;;;5097498;28;20363;-59
2021/07/09 10:29:20;;;;;;;;;;;26.60;52.30;;;;;;5090774;28;19945;-59
2021/07/09 10:31:46;;;;;;;;;;;26.60;52.20;;;;;;5096646;28;19920;-59
2021/07/09 10:34:30;;;;;;;;;;;26.60;52.30;;;;;;5088870;28;19962;-59
2021/07/09 10:36:58;;;;;;;;;;;26.60;52.30;;;;;;5089006;28;19931;-60
2021/07/09 10:39:30;;;;;;;;;;;26.60;52.30;;;;;;5085931;28;19969;-60
2021/07/09 10:41:55;;;;;;;;;;;26.60;52.30;;;;;;5082723;28;19916;-59
2021/07/09 10:44:21;;;;;;;;;;;26.60;52.30;;;;;;5086516;28;19912;-60
2021/07/09 10:46:47;;;;;;;;;;;26.60;52.20;;;;;;5069705;28;19912;-59
2021/07/09 10:49:31;;;;;;;;;;;26.60;52.30;;;;;;5087254;28;19920;-58
2021/07/09 10:51:57;;;;;;;;;;;26.60;52.40;;;;;;5080851;28;20386;-60
2021/07/09 10:54:23;;;;;;;;;;;26.70;52.60;;;;;;5085317;28;20026;-60
2021/07/09 10:57:09;;;;;;;;;;;26.70;52.70;;;;;;5087108;28;20000;-61
2021/07/09 10:59:54;;;;;;;;;;;26.70;52.60;;;;;;5090676;28;20365;-56
2021/07/09 11:02:38;;;;;;;;;;;26.70;52.50;;;;;;5072344;28;19965;-59
2021/07/09 11:05:04;;;;;;;;;;;26.70;52.50;;;;;;5084242;28;19963;-60
2021/07/09 11:07:29;;;;;;;;;;;26.70;52.50;;;;;;5086986;28;19992;-57
2021/07/09 11:09:55;;;;;;;;;;;26.70;52.40;;;;;;5087486;28;19908;-59
2021/07/09 11:12:27;;;;;;;;;;;26.70;52.40;;;;;;5087861;28;19919;-59
2021/07/09 11:14:55;;;;;;;;;;;26.70;52.30;;;;;;5086711;28;20365;-59
2021/07/09 11:17:23;;;;;;;;;;;26.70;52.30;;;;;;5078218;28;20293;-59
2021/07/09 11:19:50;;;;;;;;;;;26.70;52.30;;;;;;5084431;28;19919;-59
2021/07/09 11:22:15;;;;;;;;;;;26.70;52.30;;;;;;5090816;28;19992;-60
2021/07/09 11:24:51;;;;;;;;;;;26.70;52.20;;;;;;5086270;28;19994;-59
2021/07/09 11:27:17;;;;;;;;;;;26.70;52.20;;;;;;5081628;28;19923;-60
2021/07/09 11:29:44;;;;;;;;;;;26.70;52.20;;;;;;5080309;28;20727;-59
2021/07/09 11:32:12;;;;;;;;;;;26.70;52.30;;;;;;5083630;28;19912;-58
2021/07/09 11:34:40;;;;;;;;;;;26.70;52.30;;;;;;5082452;28;19995;-59
2021/07/09 11:37:07;;;;;;;;;;;26.70;52.30;;;;;;5081696;28;19912;-61
2021/07/09 11:39:33;;;;;;;;;;;26.70;52.30;;;;;;5078915;28;20354;-60
2021/07/09 11:41:59;;;;;;;;;;;26.60;52.30;;;;;;5087477;28;20283;-61
2021/07/09 11:44:26;;;;;;;;;;;26.60;52.30;;;;;;5081827;28;19931;-59
2021/07/09 11:46:53;;;;;;;;;;;26.60;52.30;;;;;;5077168;28;19912;-59
2021/07/09 11:49:19;;;;;;;;;;;26.60;52.30;;;;;;5087843;28;19916;-61
2021/07/09 11:51:49;;;;;;;;;;;26.60;52.30;;;;;;5084841;28;19916;-59
2021/07/09 11:54:14;;;;;;;;;;;26.60;52.30;;;;;;5086567;28;19912;-60
2021/07/09 11:56:40;;;;;;;;;;;26.60;52.30;;;;;;5086407;28;19922;-58
2021/07/09 11:59:13;;;;;;;;;;;26.60;52.40;;;;;;5087422;28;20659;-60
2021/07/09 12:01:38;;;;;;;;;;;26.50;52.80;;;;;;5084734;28;20011;-62
2021/07/09 12:04:04;;;;;;;;;;;26.50;52.40;;;;;;5084289;28;20002;-60
2021/07/09 12:06:29;;;;;;;;;;;26.50;52.40;;;;;;5083991;28;20023;-61
2021/07/09 12:08:58;;;;;;;;;;;26.50;52.40;;;;;;5080836;28;19908;-62
2021/07/09 12:11:23;;;;;;;;;;;26.50;52.40;;;;;;5084663;28;19920;-60
2021/07/09 12:14:05;;;;;;;;;;;26.50;52.50;;;;;;5085704;28;19911;-61
2021/07/09 12:16:31;;;;;;;;;;;26.40;52.40;;;;;;5081051;28;19914;-63
2021/07/09 12:18:56;;;;;;;;;;;26.50;52.50;;;;;;5088450;28;19911;-62
2021/07/09 12:21:22;;;;;;;;;;;26.40;52.50;;;;;;5082620;28;19917;-61
2021/07/09 12:23:47;;;;;;;;;;;26.40;52.50;;;;;;5082497;28;19914;-61
2021/07/09 12:26:13;;;;;;;;;;;26.40;52.50;;;;;;5080851;28;20346;-61
2021/07/09 12:28:39;;;;;;;;;;;26.40;52.60;;;;;;5080238;28;20335;-62
2021/07/09 12:31:05;;;;;;;;;;;26.40;52.60;;;;;;5086231;28;19916;-61
2021/07/09 12:33:36;;;;;;;;;;;26.30;52.60;;;;;;5086702;28;19908;-61
2021/07/09 12:36:08;;;;;;;;;;;26.30;52.60;;;;;;5085390;28;19912;-61
2021/07/09 12:38:35;;;;;;;;;;;26.30;52.60;;;;;;5081680;28;20038;-59
2021/07/09 12:41:04;;;;;;;;;;;26.30;52.70;;;;;;5085754;28;20075;-59
2021/07/09 12:43:30;;;;;;;;;;;26.30;52.70;;;;;;5083305;28;19929;-59
2021/07/09 12:46:05;;;;;;;;;;;26.30;52.70;;;;;;5085970;28;19912;-59
2021/07/09 12:48:39;;;;;;;;;;;26.30;52.70;;;;;;5088706;28;19918;-59
2021/07/09 12:51:23;;;;;;;;;;;26.30;52.70;;;;;;5086535;28;19923;-60
2021/07/09 12:53:56;;;;;;;;;;;26.30;52.70;;;;;;5068499;28;19916;-61
2021/07/09 12:56:24;;;;;;;;;;;26.20;52.70;;;;;;5083411;28;20343;-62
2021/07/09 12:58:57;;;;;;;;;;;26.20;52.70;;;;;;5086753;28;20267;-63
2021/07/09 13:01:22;;;;;;;;;;;26.20;52.70;;;;;;5088183;28;20351;-62
2021/07/09 13:03:48;;;;;;;;;;;26.20;52.70;;;;;;5087793;28;19912;-61
2021/07/09 13:06:15;;;;;;;;;;;26.20;52.70;;;;;;5086392;28;19908;-60
2021/07/09 13:08:41;;;;;;;;;;;26.20;52.70;;;;;;5085936;28;20223;-60
2021/07/09 13:11:17;;;;;;;;;;;26.20;52.80;;;;;;5083324;28;19912;-59
2021/07/09 13:13:43;;;;;;;;;;;26.20;52.80;;;;;;5081585;28;19923;-59
2021/07/09 13:16:10;;;;;;;;;;;26.20;52.80;;;;;;5082820;28;20330;-60
2021/07/09 13:18:36;;;;;;;;;;;26.10;52.70;;;;;;5085883;28;19998;-60
2021/07/09 13:21:06;;;;;;;;;;;26.10;52.80;;;;;;5082577;28;19920;-60
2021/07/09 13:23:32;;;;;;;;;;;26.10;52.70;;;;;;5082452;28;19934;-60
2021/07/09 13:26:05;;;;;;;;;;;26.10;52.70;;;;;;5085646;28;20006;-60
2021/07/09 13:28:41;;;;;;;;;;;26.10;52.80;;;;;;5081273;28;19923;-59
2021/07/09 13:31:06;;;;;;;;;;;26.10;52.80;;;;;;5085219;28;19958;-60
2021/07/09 13:33:32;;;;;;;;;;;26.10;52.80;;;;;;5079535;28;20319;-61
2021/07/09 13:35:57;;;;;;;;;;;26.10;52.70;;;;;;5081733;28;19983;-60
2021/07/09 13:38:23;;;;;;;;;;;26.10;52.60;;;;;;5084368;28;19908;-61
2021/07/09 13:40:48;;;;;;;;;;;26.10;52.40;;;;;;5083785;28;20474;-62
2021/07/09 13:43:14;;;;;;;;;;;26.10;52.30;;;;;;5085816;28;19974;-60
2021/07/09 13:45:39;;;;;;;;;;;26.10;52.20;;;;;;5081788;28;19926;-60
2021/07/09 13:48:05;;;;;;;;;;;26.10;52.10;;;;;;5084735;28;19999;-60
2021/07/09 13:50:31;;;;;;;;;;;26.20;52.10;;;;;;5080822;28;19988;-62
2021/07/09 13:52:57;;;;;;;;;;;26.20;52.00;;;;;;5083879;28;19961;-62
2021/07/09 13:55:23;;;;;;;;;;;26.20;51.80;;;;;;5084754;28;19912;-61
2021/07/09 13:57:48;;;;;;;;;;;26.20;51.70;;;;;;5084356;28;20379;-60
2021/07/09 14:00:14;;;;;;;;;;;26.20;51.50;;;;;;5084416;28;19926;-60
2021/07/09 14:02:39;;;;;;;;;;;26.20;51.50;;;;;;5084211;28;20323;-60
2021/07/09 14:05:05;;;;;;;;;;;26.20;51.40;;;;;;5088269;28;19919;-61
2021/07/09 14:07:31;;;;;;;;;;;26.20;51.20;;;;;;5081661;28;19928;-62
2021/07/09 14:09:56;;;;;;;;;;;26.20;51.30;;;;;;5084511;28;20349;-61
2021/07/09 14:12:22;;;;;;;;;;;26.20;51.30;;;;;;5082526;28;19923;-60